Time;durP1;ratioP1;P1;durP2;ratioP2;P2;SDS_P1;SDS_P2;PMS_P1;PMS_P2;Temp;Humidity;BMP_temperature;BMP_pressure;BME280_temperature;BME280_humidity;BME280_pressure;Samples;Min_cycle;Max_cycle;Signal;HPM_P1;HPM_P2
2022/06/07 00:01:38;;;;;;;4.22;2.10;;;;;;;16.70;72.82;96161.88;10323451;28;97757;-69
2022/06/07 00:06:41;;;;;;;4.03;2.90;;;;;;;16.66;73.00;96160.59;10321779;28;100644;-68
2022/06/07 00:11:45;;;;;;;4.07;2.67;;;;;;;16.63;73.87;96154.69;10312896;28;99368;-68
2022/06/07 00:16:48;;;;;;;3.03;2.60;;;;;;;16.71;74.13;96164.31;10316718;28;98535;-68
2022/06/07 00:21:51;;;;;;;2.88;1.98;;;;;;;16.82;73.71;96170.94;10315195;28;98341;-68
2022/06/07 00:26:56;;;;;;;3.92;2.75;;;;;;;16.61;74.68;96179.63;10316848;28;99036;-68
2022/06/07 00:31:59;;;;;;;;;;;;;;;16.51;74.32;96169.38;10316489;28;99231;-69
2022/06/07 00:37:02;;;;;;;3.75;2.45;;;;;;;16.59;74.35;96182.44;10319750;28;96999;-73
2022/06/07 00:42:07;;;;;;;4.00;2.63;;;;;;;16.63;75.25;96177.63;10312711;28;96961;-68
2022/06/07 00:47:12;;;;;;;5.97;3.40;;;;;;;16.59;75.81;96177.19;10330366;28;96830;-68
2022/06/07 00:52:16;;;;;;;4.78;2.95;;;;;;;16.60;76.22;96172.72;10312218;28;98845;-72
2022/06/07 00:57:21;;;;;;;5.53;3.17;;;;;;;16.60;76.48;96168.25;10319463;28;101089;-68
2022/06/07 01:02:24;;;;;;;4.32;3.20;;;;;;;16.47;76.42;96162.00;10320442;28;101416;-68
2022/06/07 01:12:49;;;;;;;3.75;3.35;;;;;;;16.43;76.84;96151.84;10311464;28;96924;-68
2022/06/07 01:17:51;;;;;;;;;;;;;;;16.49;76.47;96175.84;10313512;28;97867;-68
2022/06/07 01:22:56;;;;;;;3.97;3.58;;;;;;;16.33;76.76;96176.88;10315540;28;98712;-68
2022/06/07 01:27:59;;;;;;;5.25;3.58;;;;;;;16.23;77.71;96179.81;10317174;28;96984;-69
2022/06/07 01:33:01;;;;;;;5.80;3.30;;;;;;;16.14;77.71;96168.56;10321898;28;98084;-68
2022/06/07 01:38:06;;;;;;;4.60;3.20;;;;;;;16.19;78.41;96141.63;10323522;28;97011;-68
2022/06/07 01:43:08;;;;;;;5.05;2.95;;;;;;;16.09;78.23;96167.47;10327833;28;98748;-68
2022/06/07 01:48:11;;;;;;;5.25;2.67;;;;;;;15.96;78.06;96149.66;10319072;28;99423;-69
2022/06/07 01:53:16;;;;;;;6.05;2.75;;;;;;;15.91;78.23;96152.84;10327691;28;97629;-68
2022/06/07 01:58:19;;;;;;;4.70;2.90;;;;;;;15.82;78.91;96132.88;10325951;28;96829;-68
2022/06/07 02:03:22;;;;;;;6.10;2.90;;;;;;;15.84;78.73;96129.06;10325767;28;97052;-68
2022/06/07 02:08:26;;;;;;;2.90;2.10;;;;;;;15.88;78.46;96132.97;10325911;28;98477;-68
2022/06/07 02:13:29;;;;;;;3.42;2.30;;;;;;;15.86;77.85;96128.91;10323651;28;98769;-68
2022/06/07 02:18:32;;;;;;;3.85;2.55;;;;;;;15.79;78.34;96134.06;10325131;28;98707;-68
2022/06/07 02:23:38;;;;;;;5.78;2.72;;;;;;;15.71;78.53;96115.72;10323913;28;97738;-71
2022/06/07 02:28:45;;;;;;;3.47;2.50;;;;;;;15.75;78.53;96122.25;10321162;28;98600;-69
2022/06/07 02:33:49;;;;;;;5.20;3.00;;;;;;;15.68;78.36;96116.09;10323632;28;98813;-71
2022/06/07 02:38:53;;;;;;;3.42;2.40;;;;;;;15.69;78.82;96118.53;10319775;28;97997;-68
2022/06/07 02:43:56;;;;;;;4.75;2.22;;;;;;;15.68;78.00;96100.28;10319543;28;98757;-68
2022/06/07 02:48:59;;;;;;;4.10;2.58;;;;;;;15.60;78.44;96108.28;10318461;28;98946;-68
2022/06/07 02:54:03;;;;;;;3.80;2.38;;;;;;;15.44;78.79;96102.19;10320200;28;98149;-69
2022/06/07 02:59:06;;;;;;;2.72;2.20;;;;;;;15.35;78.65;96100.63;10327336;28;98427;-68
2022/06/07 03:04:09;;;;;;;3.03;1.80;;;;;;;15.36;78.83;96099.63;10320837;28;98070;-69
2022/06/07 03:09:13;;;;;;;3.88;2.22;;;;;;;15.32;77.83;96098.34;10321162;28;98589;-68
2022/06/07 03:14:16;;;;;;;6.90;2.53;;;;;;;15.31;78.82;96094.91;10316471;28;97197;-69
2022/06/07 03:19:19;;;;;;;3.15;2.63;;;;;;;15.30;78.05;96118.78;10323363;28;98209;-68
2022/06/07 03:24:26;;;;;;;3.72;2.42;;;;;;;15.23;78.63;96112.59;10319965;28;99493;-68
2022/06/07 03:29:29;;;;;;;2.55;2.33;;;;;;;15.28;78.83;96110.25;10321057;28;98612;-69
2022/06/07 03:34:32;;;;;;;4.07;2.85;;;;;;;15.22;78.82;96110.97;10319883;28;98531;-68
2022/06/07 03:39:36;;;;;;;4.80;2.63;;;;;;;15.26;78.65;96128.03;10318500;28;96901;-68
2022/06/07 03:44:38;;;;;;;4.23;2.40;;;;;;;15.17;78.05;96123.84;10319345;28;98836;-70
2022/06/07 03:49:41;;;;;;;3.90;2.30;;;;;;;15.16;78.01;96111.69;10319230;28;97404;-71
2022/06/07 03:54:46;;;;;;;3.40;2.65;;;;;;;15.07;77.95;96124.91;10320007;28;99440;-69
2022/06/07 03:59:49;;;;;;;3.65;2.55;;;;;;;14.92;79.21;96129.31;10320664;28;98327;-68
2022/06/07 04:04:52;;;;;;;3.22;2.30;;;;;;;14.93;78.69;96129.13;10320889;28;98768;-69
2022/06/07 04:09:56;;;;;;;3.70;2.30;;;;;;;14.84;79.41;96137.28;10323268;28;96792;-68
2022/06/07 04:14:59;;;;;;;4.40;2.08;;;;;;;14.98;77.81;96144.41;10317468;28;99323;-68
2022/06/07 04:20:01;;;;;;;6.18;2.60;;;;;;;15.01;78.49;96156.38;10318764;28;97225;-69
2022/06/07 04:25:06;;;;;;;3.45;2.05;;;;;;;15.05;78.65;96163.72;10317580;28;97057;-68
2022/06/07 04:30:10;;;;;;;;;;;;;;;15.06;77.26;96165.38;10316069;28;97477;-68
2022/06/07 04:35:15;;;;;;;2.80;1.98;;;;;;;15.07;77.22;96167.00;10318072;28;98748;-68
2022/06/07 04:40:19;;;;;;;3.47;2.30;;;;;;;15.13;77.68;96166.31;10315019;28;97135;-70
2022/06/07 04:45:22;;;;;;;2.03;1.80;;;;;;;15.10;77.05;96166.66;10312614;28;98630;-68
2022/06/07 04:50:25;;;;;;;4.50;1.98;;;;;;;15.16;77.72;96169.56;10321805;28;100954;-68
2022/06/07 04:55:29;;;;;;;4.45;2.15;;;;;;;15.32;77.64;96169.41;10322659;28;99239;-68
2022/06/07 05:00:32;;;;;;;;;;;;;;;15.46;76.26;96171.25;10322594;28;96807;-68
2022/06/07 05:05:35;;;;;;;6.88;2.00;;;;;;;15.62;76.74;96169.50;10318763;28;96770;-69
2022/06/07 05:10:41;;;;;;;2.83;1.50;;;;;;;15.70;76.06;96164.13;10309743;28;103678;-69
2022/06/07 05:15:45;;;;;;;2.88;1.80;;;;;;;15.86;75.03;96169.22;10330016;28;96898;-68
2022/06/07 05:20:47;;;;;;;2.53;1.42;;;;;;;15.85;75.30;96174.66;10324719;28;97016;-68
2022/06/07 05:25:57;;;;;;;5.13;1.70;;;;;;;15.95;75.33;96172.56;10314482;28;96912;-68
2022/06/07 05:31:00;;;;;;;2.88;1.73;;;;;;;16.15;74.08;96180.72;10320001;28;97065;-68
2022/06/07 05:36:03;;;;;;;3.25;1.80;;;;;;;16.31;73.77;96177.06;10316029;28;99037;-69
2022/06/07 05:41:07;;;;;;;2.33;1.35;;;;;;;16.65;72.00;96174.78;10311673;28;96953;-71
2022/06/07 05:46:10;;;;;;;2.17;1.50;;;;;;;16.87;72.02;96179.09;10318865;28;98844;-68
2022/06/07 05:51:13;;;;;;;1.40;1.25;;;;;;;17.09;70.77;96176.44;10313415;28;100554;-68
2022/06/07 05:56:18;;;;;;;3.10;1.80;;;;;;;17.23;70.32;96177.38;10319423;28;98583;-69
2022/06/07 06:01:21;;;;;;;;;;;;;;;17.27;71.02;96190.00;10311430;28;97226;-69
2022/06/07 06:06:24;;;;;;;2.50;1.35;;;;;;;17.32;70.13;96195.53;10323595;28;102000;-69
2022/06/07 06:11:29;;;;;;;2.65;1.33;;;;;;;17.48;69.22;96181.22;10318996;28;97726;-68
2022/06/07 06:16:33;;;;;;;2.10;1.20;;;;;;;17.85;68.14;96191.66;10313199;28;98508;-68
2022/06/07 06:21:40;;;;;;;2.10;1.63;;;;;;;18.02;67.92;96195.59;10322484;28;98875;-68
2022/06/07 06:26:44;;;;;;;5.43;1.60;;;;;;;18.04;67.82;96196.22;10326025;28;98884;-69
2022/06/07 06:31:50;;;;;;;2.13;1.60;;;;;;;17.99;68.86;96198.63;10324127;28;98908;-68
2022/06/07 06:36:53;;;;;;;1.92;1.60;;;;;;;18.01;68.44;96196.63;10318975;28;97648;-68
2022/06/07 06:41:57;;;;;;;2.10;1.90;;;;;;;18.18;67.54;96188.38;10329374;28;98866;-68
2022/06/07 06:47:01;;;;;;;2.78;1.95;;;;;;;18.17;68.00;96192.84;10325237;28;97160;-69
2022/06/07 06:52:05;;;;;;;3.40;2.10;;;;;;;18.20;68.05;96199.56;10328701;28;97987;-69
2022/06/07 06:57:09;;;;;;;3.70;2.20;;;;;;;18.16;67.53;96208.91;10323781;28;96934;-68
2022/06/07 07:02:13;;;;;;;3.03;1.73;;;;;;;18.20;67.57;96218.06;10333599;28;96969;-69
2022/06/07 07:07:16;;;;;;;3.93;2.23;;;;;;;18.34;67.27;96211.00;10322190;28;96708;-68
2022/06/07 07:12:21;;;;;;;3.80;2.60;;;;;;;18.30;67.90;96207.94;10320277;28;97024;-69
2022/06/07 07:17:23;;;;;;;4.15;2.88;;;;;;;18.44;66.69;96211.47;10305909;28;103875;-68
2022/06/07 07:22:28;;;;;;;3.05;2.22;;;;;;;18.71;65.29;96217.66;10308904;28;96912;-68
2022/06/07 07:27:32;;;;;;;3.73;2.20;;;;;;;18.85;65.67;96218.50;10322659;28;97193;-69
2022/06/07 07:32:34;;;;;;;2.85;1.70;;;;;;;19.09;64.52;96209.22;10325304;28;98975;-68
2022/06/07 07:37:37;;;;;;;3.17;2.20;;;;;;;19.23;63.08;96202.91;10323577;28;97391;-68
2022/06/07 07:42:42;;;;;;;2.75;2.20;;;;;;;19.44;62.45;96201.09;10320995;28;97242;-69
2022/06/07 07:47:44;;;;;;;;;;;;;;;19.81;62.50;96188.19;10321005;28;98640;-69
2022/06/07 07:52:48;;;;;;;2.22;1.95;;;;;;;20.12;61.23;96190.19;10318818;28;96927;-69
2022/06/07 08:39:07;;;;;;;2.33;1.60;;;;;;;19.97;58.59;96181.66;10389920;28;98514;-73
2022/06/07 08:44:23;;;;;;;2.20;1.23;;;;;;;20.51;55.89;96175.13;10371055;28;96925;-68
2022/06/07 08:49:26;;;;;;;1.27;0.88;;;;;;;20.69;54.24;96182.38;10370160;28;96944;-68
2022/06/07 08:54:35;;;;;;;1.33;1.10;;;;;;;20.25;53.55;96162.81;10368479;28;98099;-68
2022/06/07 08:59:38;;;;;;;1.70;1.00;;;;;;;20.02;53.74;96175.72;10367055;28;97133;-68
2022/06/07 09:04:41;;;;;;;2.47;1.13;;;;;;;20.18;52.82;96154.03;10369039;28;96851;-68
2022/06/07 09:15:13;;;;;;;3.10;1.00;;;;;;;21.16;50.54;96160.88;10366724;28;96994;-69
2022/06/07 09:20:18;;;;;;;2.28;1.10;;;;;;;21.21;49.64;96165.53;10368190;28;96673;-69
2022/06/07 09:25:34;;;;;;;1.73;0.82;;;;;;;20.91;50.22;96161.66;10369544;28;97260;-70
2022/06/07 09:30:40;;;;;;;1.33;1.05;;;;;;;20.70;53.12;96156.66;10372602;28;96784;-68
2022/06/07 09:35:43;;;;;;;3.13;1.27;;;;;;;20.74;53.15;96161.34;10368537;28;96862;-68
2022/06/07 09:40:56;;;;;;;1.42;0.70;;;;;;;20.57;50.55;96147.72;10366929;28;97137;-68
2022/06/07 09:46:06;;;;;;;2.33;1.48;;;;;;;20.46;49.94;96155.53;10368971;28;96709;-70
2022/06/07 09:51:16;;;;;;;1.95;0.77;;;;;;;20.37;50.91;96150.50;10343580;28;96864;-68
2022/06/07 09:56:29;;;;;;;2.60;0.73;;;;;;;20.48;48.88;96133.09;10339533;28;96786;-68
2022/06/07 10:01:37;;;;;;;1.00;0.90;;;;;;;20.73;48.42;96133.13;10347126;28;97220;-68
2022/06/07 10:06:46;;;;;;;2.05;0.90;;;;;;;20.96;46.36;96113.19;10344370;28;98330;-68
2022/06/07 10:12:01;;;;;;;1.67;0.80;;;;;;;20.96;49.04;96110.53;10339606;28;96949;-69
2022/06/07 10:17:39;;;;;;;2.70;0.85;;;;;;;20.97;48.29;96108.72;10344057;28;96858;-68
2022/06/07 10:22:52;;;;;;;1.65;0.90;;;;;;;21.11;48.60;96103.06;10345507;28;96894;-70
2022/06/07 10:28:07;;;;;;;2.07;1.00;;;;;;;21.03;48.12;96106.00;10343308;28;98512;-68
2022/06/07 10:33:42;;;;;;;1.30;0.82;;;;;;;21.41;46.58;96078.47;10342144;28;96788;-69
2022/06/07 10:38:58;;;;;;;1.75;0.90;;;;;;;21.72;44.65;96074.09;10323285;28;97287;-68
2022/06/07 10:44:11;;;;;;;1.02;0.70;;;;;;;22.15;42.81;96078.47;10339575;28;96931;-68
2022/06/07 10:49:22;;;;;;;1.90;0.57;;;;;;;22.01;42.44;96085.81;10342859;28;96754;-68
2022/06/07 10:54:30;;;;;;;1.45;0.70;;;;;;;21.76;42.00;96101.03;10338587;28;96926;-68
2022/06/07 10:59:38;;;;;;;2.28;0.80;;;;;;;21.51;40.59;96073.47;10338593;28;96789;-69
2022/06/07 11:10:12;;;;;;;1.58;0.80;;;;;;;21.36;42.75;96074.84;10340792;28;96930;-68
2022/06/07 11:15:25;;;;;;;2.38;1.00;;;;;;;21.32;44.23;96085.91;10341613;28;96708;-68
2022/06/07 11:20:31;;;;;;;1.50;0.80;;;;;;;21.27;44.76;96083.09;10326658;28;96963;-69
2022/06/07 11:25:36;;;;;;;9.02;2.22;;;;;;;21.50;44.46;96086.97;10338225;28;97045;-68
2022/06/07 11:30:47;;;;;;;2.83;1.00;;;;;;;21.10;45.16;96076.72;10341540;28;96815;-68
2022/06/07 11:36:08;;;;;;;1.08;0.82;;;;;;;21.16;44.21;96067.88;10340125;28;96774;-68
2022/06/07 11:41:46;;;;;;;2.10;1.05;;;;;;;21.42;43.55;96064.16;10340775;28;97420;-68
2022/06/07 11:46:59;;;;;;;0.93;0.70;;;;;;;21.46;42.10;96049.38;10285861;28;97032;-68
2022/06/07 11:52:22;;;;;;;1.35;0.70;;;;;;;21.54;40.63;96044.84;10286467;28;97192;-69
2022/06/07 11:57:33;;;;;;;1.30;0.90;;;;;;;21.54;41.53;96042.19;10284978;28;98170;-68
2022/06/07 12:02:38;;;;;;;4.32;1.25;;;;;;;21.50;43.11;96042.63;10287111;28;98926;-68
2022/06/07 12:07:49;;;;;;;2.83;1.00;;;;;;;21.51;43.27;96052.19;10288024;28;97240;-69
2022/06/07 12:12:56;;;;;;;1.00;0.90;;;;;;;21.73;42.45;96049.13;10285106;28;97109;-69
2022/06/07 12:18:03;;;;;;;0.90;0.73;;;;;;;21.98;41.06;96050.88;10294671;28;96840;-68
2022/06/07 12:23:18;;;;;;;1.40;0.80;;;;;;;21.97;41.85;96043.91;10340407;28;96963;-69
2022/06/07 12:28:24;;;;;;;1.63;0.85;;;;;;;21.77;41.24;96050.31;10341610;28;96932;-69
2022/06/07 12:33:33;;;;;;;2.38;0.90;;;;;;;21.71;41.85;96035.25;10339706;28;98395;-68
2022/06/07 12:38:36;;;;;;;1.35;0.70;;;;;;;21.62;41.67;96033.91;10335593;28;96897;-68
2022/06/07 12:43:45;;;;;;;1.85;1.00;;;;;;;21.49;39.43;96029.53;10342345;28;96759;-68
2022/06/07 12:48:53;;;;;;;3.05;0.70;;;;;;;21.58;39.09;96019.44;10339660;28;97129;-68
2022/06/07 12:54:00;;;;;;;2.65;0.60;;;;;;;21.52;39.28;96013.16;10335252;28;98528;-68
2022/06/07 12:59:07;;;;;;;1.17;0.82;;;;;;;21.56;37.72;96027.63;10340019;28;96893;-69
2022/06/07 13:04:19;;;;;;;0.30;0.30;;;;;;;21.71;39.11;96027.28;10339101;28;96813;-68
2022/06/07 13:09:22;;;;;;;1.13;0.63;;;;;;;21.99;38.21;96020.59;10338753;28;96881;-69
2022/06/07 13:14:25;;;;;;;1.38;0.80;;;;;;;22.24;38.03;96015.91;10336108;28;97250;-68
2022/06/07 13:19:30;;;;;;;0.80;0.50;;;;;;;22.52;36.78;96019.03;10340955;28;96938;-68
2022/06/07 13:24:40;;;;;;;;;;;;;;;22.77;36.95;96013.53;10343891;28;97006;-69
2022/06/07 13:29:44;;;;;;;0.50;0.40;;;;;;;22.95;36.47;96008.09;10341342;28;96897;-69
2022/06/07 13:34:53;;;;;;;2.85;0.50;;;;;;;23.12;35.25;95996.75;10339660;28;97396;-68
2022/06/07 13:40:06;;;;;;;1.15;0.50;;;;;;;23.27;36.51;96010.44;10346378;28;96750;-68
2022/06/07 13:45:25;;;;;;;4.03;0.80;;;;;;;23.40;36.19;96008.56;10343663;28;96875;-68
2022/06/07 13:55:54;;;;;;;;;;;;;;;23.64;36.64;95988.78;10340310;28;96865;-68
2022/06/07 14:01:00;;;;;;;2.45;0.70;;;;;;;24.04;35.85;95984.47;10344687;28;96778;-69
2022/06/07 14:06:07;;;;;;;1.60;0.70;;;;;;;24.49;34.86;95987.16;10341347;28;96964;-69
2022/06/07 14:11:09;;;;;;;1.13;0.50;;;;;;;24.74;35.06;95979.78;10344090;28;96990;-69
2022/06/07 14:16:17;;;;;;;1.20;0.68;;;;;;;25.93;33.87;95980.31;10342916;28;96689;-69
2022/06/07 14:21:21;;;;;;;1.73;0.50;;;;;;;26.36;33.82;95983.97;10343469;28;99760;-70
2022/06/07 14:26:25;;;;;;;1.70;0.47;;;;;;;27.01;33.36;95978.63;10341397;28;96885;-69
2022/06/07 14:31:28;;;;;;;;;;;;;;;28.14;32.86;95985.25;10342309;28;97114;-69
2022/06/07 14:36:32;;;;;;;1.20;0.47;;;;;;;27.62;32.36;95980.81;10344254;28;96745;-69
2022/06/07 14:41:35;;;;;;;1.55;0.43;;;;;;;28.80;31.58;95975.66;10340507;28;99620;-69
2022/06/07 14:46:41;;;;;;;1.15;0.47;;;;;;;29.67;30.09;95978.19;10345905;28;97244;-69
2022/06/07 14:51:47;;;;;;;0.60;0.30;;;;;;;29.22;30.12;95981.81;10342449;28;96878;-70
2022/06/07 14:56:50;;;;;;;2.58;0.90;;;;;;;27.22;32.33;95985.69;10339977;28;98339;-69
2022/06/07 15:01:57;;;;;;;1.25;0.55;;;;;;;27.93;31.66;95978.25;10344599;28;97053;-69
2022/06/07 15:07:02;;;;;;;0.88;0.47;;;;;;;26.80;32.38;95999.09;10341709;28;101616;-70
2022/06/07 15:12:06;;;;;;;1.63;0.80;;;;;;;24.95;34.46;95991.63;10341310;28;98006;-69
2022/06/07 15:17:14;;;;;;;1.38;0.55;;;;;;;24.26;35.80;96012.13;10341701;28;96818;-69
2022/06/07 15:22:18;;;;;;;4.28;0.90;;;;;;;23.83;35.81;96000.09;10341115;28;96936;-69
2022/06/07 15:27:22;;;;;;;2.55;0.80;;;;;;;24.71;35.35;96007.78;10343284;28;96890;-69
2022/06/07 15:32:27;;;;;;;2.27;0.67;;;;;;;25.80;34.20;95997.56;10339203;28;96884;-69
2022/06/07 15:37:35;;;;;;;1.75;0.60;;;;;;;26.95;32.10;96001.06;10342055;28;96957;-69
2022/06/07 15:42:48;;;;;;;0.82;0.50;;;;;;;26.81;32.21;96022.91;10340945;28;96674;-69
2022/06/07 15:48:01;;;;;;;1.30;0.70;;;;;;;26.54;33.15;96007.72;10336091;28;98479;-69
2022/06/07 15:53:07;;;;;;;2.33;0.65;;;;;;;26.75;31.72;96019.41;10343269;28;97856;-69
2022/06/07 16:03:31;;;;;;;1.02;0.80;;;;;;;27.06;31.55;96029.59;10340824;28;96963;-69
2022/06/07 16:08:35;;;;;;;2.25;0.70;;;;;;;27.49;31.04;96017.78;10337968;28;96709;-70
2022/06/07 16:13:38;;;;;;;2.25;0.75;;;;;;;26.02;32.31;96028.88;10341618;28;97046;-70
2022/06/07 16:18:41;;;;;;;2.92;1.00;;;;;;;24.42;34.31;96034.56;10340206;28;100029;-70
2022/06/07 16:23:46;;;;;;;4.47;0.80;;;;;;;24.81;34.14;96037.34;10336249;28;97311;-69
2022/06/07 16:34:09;;;;;;;2.45;0.70;;;;;;;26.01;32.50;96057.47;10339690;28;96965;-69
2022/06/07 16:39:16;;;;;;;3.70;1.00;;;;;;;26.11;31.93;96051.44;10334908;28;96763;-70
2022/06/07 16:44:19;;;;;;;2.83;0.68;;;;;;;26.39;31.45;96036.22;10344243;28;97066;-69
2022/06/07 16:49:25;;;;;;;1.73;0.70;;;;;;;25.60;32.65;96043.63;10340340;28;96904;-69
2022/06/07 16:54:29;;;;;;;2.80;0.82;;;;;;;25.73;32.62;96026.38;10339219;28;98002;-69
2022/06/07 16:59:32;;;;;;;2.25;0.80;;;;;;;26.43;30.82;96031.97;10340826;28;99727;-69
2022/06/07 17:04:35;;;;;;;2.33;0.70;;;;;;;26.25;30.89;96036.63;10348060;28;96792;-69
2022/06/07 17:09:40;;;;;;;2.53;1.20;;;;;;;26.81;30.04;96038.19;10347009;28;98645;-70
2022/06/07 17:14:43;;;;;;;2.65;0.70;;;;;;;27.74;29.55;96051.19;10341788;28;96746;-69
2022/06/07 17:19:46;;;;;;;2.55;0.80;;;;;;;27.60;28.91;96037.41;10348913;28;96785;-69
2022/06/07 17:24:50;;;;;;;3.95;0.88;;;;;;;27.50;28.36;96048.09;10342950;28;96927;-69
2022/06/07 17:29:53;;;;;;;2.13;0.65;;;;;;;27.28;27.77;96041.00;10340844;28;97280;-69
2022/06/07 17:34:56;;;;;;;2.10;0.90;;;;;;;27.73;27.73;96049.56;10345596;28;96929;-69
2022/06/07 17:40:00;;;;;;;1.60;0.50;;;;;;;27.44;27.62;96041.88;10341387;28;96872;-69
2022/06/07 17:45:04;;;;;;;1.55;0.47;;;;;;;27.74;27.39;96051.19;10341792;28;97291;-69
2022/06/07 17:50:20;;;;;;;3.35;0.70;;;;;;;27.80;27.08;96050.13;10345748;28;97282;-69
2022/06/07 17:55:26;;;;;;;1.65;0.63;;;;;;;27.66;27.23;96055.19;10338176;28;96743;-69
2022/06/07 18:00:31;;;;;;;2.83;0.57;;;;;;;28.07;27.48;96067.97;10357878;28;97009;-69
2022/06/07 18:05:36;;;;;;;1.40;0.68;;;;;;;27.21;27.50;96066.41;10341063;28;97156;-72
2022/06/07 18:10:43;;;;;;;2.22;0.60;;;;;;;25.73;29.60;96055.81;10345071;28;97039;-68
2022/06/07 18:15:49;;;;;;;2.03;0.60;;;;;;;24.83;30.21;96053.94;10338515;28;98747;-68
2022/06/07 18:20:52;;;;;;;1.92;0.60;;;;;;;24.04;30.93;96052.00;10338892;28;96924;-68
2022/06/07 18:25:57;;;;;;;2.17;0.80;;;;;;;23.31;32.42;96048.88;10344039;28;96992;-68
2022/06/07 18:31:01;;;;;;;2.53;0.80;;;;;;;22.59;32.92;96057.00;10339176;28;96851;-68
2022/06/07 18:36:04;;;;;;;;;;;;;;;22.09;32.87;96057.28;10341202;28;96872;-68
2022/06/07 18:41:12;;;;;;;1.17;0.50;;;;;;;21.55;34.30;96071.16;10343058;28;96920;-68
2022/06/07 18:46:17;;;;;;;4.22;0.70;;;;;;;20.87;36.08;96074.69;10344030;28;96783;-67
2022/06/07 18:51:21;;;;;;;2.22;0.70;;;;;;;20.37;37.29;96068.25;10342140;28;97950;-68
2022/06/07 18:56:26;;;;;;;3.95;0.80;;;;;;;19.93;38.14;96061.94;10339910;28;96907;-67
2022/06/07 19:01:32;;;;;;;1.70;0.60;;;;;;;19.66;38.25;96063.84;10342337;28;96816;-72
2022/06/07 19:06:36;;;;;;;2.42;0.52;;;;;;;19.50;38.17;96073.06;10342480;28;96823;-67
2022/06/07 19:11:44;;;;;;;2.97;0.93;;;;;;;19.35;38.59;96069.84;10336854;28;96996;-67
2022/06/07 19:16:47;;;;;;;2.05;0.75;;;;;;;19.28;38.74;96069.06;10335043;28;97364;-67
2022/06/07 19:21:50;;;;;;;2.85;1.38;;;;;;;19.20;39.43;96068.25;10339360;28;97019;-68
2022/06/07 19:26:55;;;;;;;2.15;0.82;;;;;;;18.85;40.46;96071.09;10336353;28;97066;-67
2022/06/07 19:31:58;;;;;;;;;;;;;;;18.67;40.20;96074.38;10343018;28;96682;-66
2022/06/07 19:37:01;;;;;;;3.22;0.95;;;;;;;18.58;40.23;96069.47;10340286;28;97177;-67
2022/06/07 19:42:06;;;;;;;4.03;1.60;;;;;;;18.49;41.25;96074.94;10337586;28;98492;-68
2022/06/07 19:47:08;;;;;;;;;;;;;;;18.33;40.03;96070.03;10340709;28;96907;-67
2022/06/07 19:52:13;;;;;;;3.25;0.93;;;;;;;18.07;42.03;96082.16;10327171;28;97045;-67
2022/06/07 19:57:17;;;;;;;;;;;;;;;17.96;41.63;96064.25;10333371;28;97061;-69
2022/06/07 20:02:20;;;;;;;2.15;0.60;;;;;;;17.88;42.47;96073.16;10333078;28;96784;-67
2022/06/07 20:07:24;;;;;;;2.97;1.60;;;;;;;17.61;43.46;96084.59;10334316;28;98301;-68
2022/06/07 20:12:28;;;;;;;1.10;0.52;;;;;;;17.49;44.01;96084.31;10336892;28;97061;-67
2022/06/07 20:17:31;;;;;;;;;;;;;;;17.45;43.25;96080.44;10336542;28;98565;-68
2022/06/07 20:22:34;;;;;;;3.45;1.00;;;;;;;17.26;43.71;96081.94;10336964;28;97090;-67
2022/06/07 20:27:39;;;;;;;2.80;0.77;;;;;;;17.02;44.79;96085.84;10333302;28;96934;-67
2022/06/07 20:32:42;;;;;;;3.33;0.95;;;;;;;16.85;44.79;96080.88;10330809;28;96905;-68
2022/06/07 20:37:47;;;;;;;3.22;0.82;;;;;;;16.81;45.05;96075.16;10335348;28;96852;-67
2022/06/07 20:42:51;;;;;;;2.35;0.95;;;;;;;16.78;45.76;96074.72;10338894;28;96965;-67
2022/06/07 20:47:56;;;;;;;2.75;0.90;;;;;;;16.61;46.13;96072.31;10334806;28;98304;-67
2022/06/07 20:52:59;;;;;;;3.72;0.70;;;;;;;16.13;47.65;96077.31;10339640;28;96698;-67
2022/06/07 20:58:04;;;;;;;1.85;1.00;;;;;;;15.76;48.73;96065.97;10337099;28;97015;-67
2022/06/07 21:03:07;;;;;;;3.75;0.90;;;;;;;15.63;48.83;96066.63;10334739;28;96924;-68
2022/06/07 21:08:11;;;;;;;4.23;1.07;;;;;;;15.39;49.15;96059.81;10347403;28;96939;-67
2022/06/07 21:13:15;;;;;;;1.92;0.73;;;;;;;15.18;50.87;96057.06;10335490;28;97598;-68
2022/06/07 21:18:18;;;;;;;3.03;1.05;;;;;;;15.04;50.56;96040.25;10338982;28;96806;-68
2022/06/07 21:23:21;;;;;;;3.00;0.90;;;;;;;14.75;51.47;96049.75;10319745;28;97053;-68
2022/06/07 21:28:25;;;;;;;2.67;0.80;;;;;;;14.56;52.13;96048.44;10337546;28;96942;-68
2022/06/07 21:33:28;;;;;;;3.63;1.10;;;;;;;14.48;51.70;96040.63;10336846;28;97221;-68
2022/06/07 21:38:32;;;;;;;1.70;0.80;;;;;;;14.36;51.65;96030.50;10333817;28;96914;-69
2022/06/07 21:43:36;;;;;;;3.85;0.80;;;;;;;14.23;52.40;96030.28;10342132;28;96907;-68
2022/06/07 21:48:40;;;;;;;3.70;0.95;;;;;;;14.14;53.05;96033.94;10338412;28;97510;-67
2022/06/07 21:53:43;;;;;;;2.10;1.10;;;;;;;13.99;54.08;96039.13;10339249;28;96835;-68
2022/06/07 21:58:47;;;;;;;4.57;1.13;;;;;;;13.98;54.63;96025.19;10346593;28;96892;-68
2022/06/07 22:03:50;;;;;;;1.40;0.70;;;;;;;13.95;54.92;96024.69;10344287;28;97168;-68
2022/06/07 22:08:54;;;;;;;4.82;0.90;;;;;;;13.81;55.64;96019.22;10341017;28;96811;-70
2022/06/07 22:13:58;;;;;;;3.58;1.10;;;;;;;13.61;56.38;96018.03;10341287;28;98354;-68
2022/06/07 22:19:02;;;;;;;2.92;0.93;;;;;;;13.32;56.44;96010.75;10338355;28;97198;-67
2022/06/07 22:24:05;;;;;;;3.83;1.00;;;;;;;12.97;58.20;95999.75;10342365;28;99945;-68
2022/06/07 22:34:29;;;;;;;2.33;0.98;;;;;;;12.71;58.20;95995.50;10346678;28;96933;-69
2022/06/07 22:39:32;;;;;;;4.60;1.00;;;;;;;12.61;58.26;96000.94;10342618;28;96790;-68
2022/06/07 22:44:36;;;;;;;4.22;0.98;;;;;;;12.50;58.31;95989.00;10339808;28;96689;-68
2022/06/07 22:49:40;;;;;;;2.73;1.00;;;;;;;12.49;57.87;95986.53;10343926;28;96942;-68
2022/06/07 22:54:46;;;;;;;3.42;0.98;;;;;;;12.46;58.28;95985.06;10342534;28;96813;-68
2022/06/07 22:59:53;;;;;;;3.45;1.08;;;;;;;12.43;58.12;95982.78;10339018;28;97089;-68
2022/06/07 23:04:57;;;;;;;1.95;1.15;;;;;;;12.32;58.08;95972.66;10344962;28;96826;-68
2022/06/07 23:10:00;;;;;;;5.63;1.10;;;;;;;12.22;58.58;95962.34;10341865;28;96717;-68
2022/06/07 23:20:29;;;;;;;3.90;1.30;;;;;;;12.10;59.46;95946.13;10324587;28;97155;-69
2022/06/07 23:25:32;;;;;;;;;;;;;;;11.88;59.34;95941.56;10342715;28;96826;-68
2022/06/07 23:30:36;;;;;;;3.17;1.20;;;;;;;11.80;59.89;95939.75;10340432;28;97074;-68
2022/06/07 23:35:39;;;;;;;4.37;1.20;;;;;;;11.66;60.03;95948.22;10337601;28;97082;-68
2022/06/07 23:40:42;;;;;;;5.05;1.17;;;;;;;11.52;60.46;95947.09;10344695;28;96837;-68
2022/06/07 23:45:47;;;;;;;3.70;1.50;;;;;;;11.41;60.78;95942.16;10340359;28;96848;-68
2022/06/07 23:50:50;;;;;;;2.27;1.00;;;;;;;11.38;60.90;95926.75;10336859;28;97115;-68
2022/06/07 23:55:56;;;;;;;3.55;0.90;;;;;;;11.35;61.63;95931.34;10342647;28;96952;-68
